Flight Track Log - Related Links

Times and Time Zones

All times are in EDT time to prevent confusion due to time zone crossing. See the UCA4793 flight status page for this flight to view local times or setup timezone preferences in your user account.

Time Position Orientation Groundspeed Altitude Reporting Facility
EDT Latitude Longitude Course Direction KTS MPH feet Rate Location/Type
Thu 03:38:50 PM 43.1078 -76.1233 291° West 103 119 1,000  Level Boston Center
Thu 03:39:33 PM 43.1089 -76.1575 273° West 122 140 1,600 1,052 Climbing Boston Center
Thu 03:40:27 PM 43.1069 -76.2144 267° West 171 197 2,700 1,357 Climbing Boston Center
Thu 03:41:28 PM 43.1069 -76.2797 270° West 177 204 4,200 1,547 Climbing Boston Center
Thu 03:42:35 PM 43.1083 -76.3567 271° West 177 204 6,000 1,634 Climbing Boston Center
Thu 03:44:00 PM 43.1792 -76.3189 291° West  Level FlightAware Approximate
Thu 03:44:39 PM 43.1150 -76.4844 274° West 179 206 9,400  Level Cleveland Center
Thu 03:45:39 PM 43.1089 -76.5475 262° West 179 206 11,100 1,700 Climbing Cleveland Center
Thu 03:46:39 PM 43.0900 -76.6028 245° Southwest 174 200 12,800 1,750 Climbing Cleveland Center
Thu 03:47:39 PM 43.0647 -76.6614 239° Southwest 174 200 14,600 1,550 Climbing Cleveland Center
Thu 03:48:39 PM 43.0481 -76.7164 247° West 174 200 15,900 650 Climbing Cleveland Center
Thu 03:49:39 PM 43.0233 -76.7889 245° Southwest 188 216 15,900  Level Cleveland Center
Thu 03:50:39 PM 42.9947 -76.8731 245° Southwest 219 252 15,900  Level Cleveland Center
Thu 03:51:39 PM 42.9681 -76.9539 246° West 232 267 15,900  Level Cleveland Center
Thu 03:52:39 PM 42.9394 -77.0350 244° Southwest 237 273 15,900  Level Cleveland Center
Thu 03:53:39 PM 42.9106 -77.1133 243° Southwest 237 273 15,900  Level Cleveland Center
Thu 03:54:39 PM 42.8817 -77.2000 246° West 237 273 15,900  Level Cleveland Center
Thu 03:55:39 PM 42.8547 -77.2778 245° Southwest 237 273 15,900  Level Cleveland Center
Thu 03:56:39 PM 42.8258 -77.3586 244° Southwest 237 273 15,900  Level Cleveland Center
Thu 03:57:39 PM 42.7989 -77.4364 245° Southwest 237 273 15,900  Level Cleveland Center
Thu 03:58:39 PM 42.7717 -77.5169 245° Southwest 237 273 15,900  Level Cleveland Center
Thu 03:59:39 PM 42.7425 -77.5947 243° Southwest 237 273 15,900 50 Level Cleveland Center
Thu 04:00:39 PM 42.7114 -77.6811 244° Southwest 237 273 16,000 50 Climbing Cleveland Center
Thu 04:01:39 PM 42.6861 -77.7500 243° Southwest 237 273 16,000  Level Cleveland Center
Thu 04:02:39 PM 42.6589 -77.8333 246° West 237 273 16,000  Level Cleveland Center
Thu 04:03:39 PM 42.6294 -77.9136 244° Southwest 232 267 16,000  Level Cleveland Center
Thu 04:04:39 PM 42.6019 -77.9908 244° Southwest 232 267 16,000  Level Cleveland Center
Thu 04:06:00 PM 42.5504 -78.0797 245° Southwest  Level FlightAware Approximate
Thu 04:06:39 PM 42.5472 -78.1481 245° Southwest 237 273 16,000  Level Cleveland Center
Thu 04:07:39 PM 42.5194 -78.2253 244° Southwest 237 273 16,000 650 Level Cleveland Center
Thu 04:08:39 PM 42.4939 -78.2939 243° Southwest 231 266 17,300 1,000 Climbing Cleveland Center
Thu 04:09:39 PM 42.4722 -78.3567 245° Southwest 217 250 18,000 350 Climbing Cleveland Center
Thu 04:10:39 PM 42.4464 -78.4250 243° Southwest 203 234 18,000  Level Cleveland Center
Thu 04:11:39 PM 42.4186 -78.5019 244° Southwest 210 242 18,000  Level Cleveland Center
Thu 04:12:39 PM 42.3906 -78.5758 243° Southwest 221 254 18,000  Level Cleveland Center
Thu 04:13:39 PM 42.3650 -78.6525 246° West 221 254 18,000  Level Cleveland Center
Thu 04:14:39 PM 42.3369 -78.7264 243° Southwest 221 254 18,000  Level Cleveland Center
Thu 04:15:39 PM 42.3069 -78.8031 242° Southwest 221 254 18,000  Level Cleveland Center
Thu 04:16:39 PM 42.2808 -78.8797 245° Southwest 221 254 18,000  Level Cleveland Center
Thu 04:17:39 PM 42.2547 -78.9478 243° Southwest 226 260 18,000  Level Cleveland Center
Thu 04:18:39 PM 42.2267 -79.0186 242° Southwest 226 260 18,000  Level Cleveland Center
Thu 04:19:39 PM 42.1983 -79.0922 243° Southwest 221 254 18,000  Level Cleveland Center
Thu 04:20:39 PM 42.1700 -79.1628 242° Southwest 221 254 18,000  Level Cleveland Center
Thu 04:21:39 PM 42.1375 -79.2336 238° Southwest 221 254 18,000  Level Cleveland Center
Thu 04:22:39 PM 42.1050 -79.3042 238° Southwest 226 260 18,000  Level Cleveland Center
Thu 04:23:39 PM 42.0725 -79.3719 237° Southwest 226 260 18,000  Level Cleveland Center
Thu 04:24:39 PM 42.0378 -79.4425 236° Southwest 226 260 18,000  Level Cleveland Center
Thu 04:25:39 PM 42.0072 -79.5128 240° Southwest 226 260 18,000  Level Cleveland Center
Thu 04:26:39 PM 41.9722 -79.5806 235° Southwest 231 266 18,000  Level Cleveland Center
Thu 04:27:39 PM 41.9417 -79.6536 241° Southwest 231 266 18,000 -200 Level Cleveland Center
Thu 04:28:39 PM 41.9025 -79.7294 235° Southwest 236 272 17,600 -500 Descending Cleveland Center
Thu 04:29:39 PM 41.8678 -79.8081 239° Southwest 230 265 17,000 -600 Descending Cleveland Center
Thu 04:30:39 PM 41.8328 -79.8808 237° Southwest 237 273 16,400 -550 Descending Cleveland Center
Thu 04:31:39 PM 41.8144 -79.9619 253° West 237 273 15,900 -250 Descending Cleveland Center
Thu 04:32:39 PM 41.7942 -80.0456 252° West 237 273 15,900 -300 Level Cleveland Center
Thu 04:33:39 PM 41.7756 -80.1267 253° West 231 266 15,300 -600 Descending Cleveland Center
Thu 04:34:39 PM 41.7550 -80.2103 252° West 238 274 14,700 -600 Descending Cleveland Center
Thu 04:35:39 PM 41.7408 -80.2964 258° West 244 281 14,100 -600 Descending Cleveland Center
Thu 04:36:39 PM 41.7181 -80.3800 250° West 244 281 13,500 -600 Descending Cleveland Center
Thu 04:37:39 PM 41.6972 -80.4636 252° West 244 281 12,900 -550 Descending Cleveland Center
Thu 04:38:39 PM 41.6786 -80.5386 252° West 244 281 12,400 -600 Descending Cleveland Center
Thu 04:39:39 PM 41.6597 -80.6108 251° West 238 274 11,700 -650 Descending Cleveland Center
Thu 04:40:39 PM 41.6389 -80.6886 250° West 228 262 11,100 -450 Descending Cleveland Center
Thu 04:41:39 PM 41.6200 -80.7608 251° West 223 257 10,800 -500 Descending Cleveland Center
Thu 04:42:39 PM 41.6033 -80.8331 253° West 210 242 10,100 -700 Descending Cleveland Center
Thu 04:43:39 PM 41.5844 -80.8997 249° West 205 236 9,400 -550 Descending Cleveland Center
Thu 04:44:39 PM 41.5778 -80.9800 264° West 205 236 9,000 -197 Descending Cleveland Center
Thu 04:45:41 PM 41.5714 -81.0522 263° West 187 215 9,000  Level Cleveland Center
Thu 04:46:36 PM 41.5669 -81.1189 265° West 195 224 9,000  Level Cleveland Center
Thu 04:47:39 PM 41.5603 -81.1992 264° West 204 235 9,000 -248 Level Cleveland Center
Thu 04:48:37 PM 41.5472 -81.2767 257° West 221 254 8,500 -700 Descending Cleveland Center
Thu 04:49:39 PM 41.5425 -81.3544 265° West 216 249 7,600 -1,033 Descending Cleveland Center
Thu 04:50:39 PM 41.5378 -81.4236 265° West 211 243 6,400 -1,261 Descending Cleveland Center
Thu 04:51:38 PM 41.5331 -81.5014 265° West 211 243 5,100 -1,252 Descending Cleveland Center
Thu 04:52:34 PM 41.5306 -81.5678 267° West 201 231 4,000 -569 Descending Cleveland Center
Thu 04:53:34 PM 41.5131 -81.6397 252° West 207 238 4,000 -248 Level Cleveland Center
Thu 04:54:35 PM 41.4856 -81.6975 238° Southwest 186 214 3,500 -750 Descending Cleveland Center
Thu 04:55:42 PM 41.4433 -81.7439 219° Southwest 163 188 2,400 -812 Descending Cleveland Center
Thu 04:56:48 PM 41.4158 -81.7847 228° Southwest 141 162 1,700 -709 Descending Cleveland Center
Thu 04:57:49 PM 41.4153 -81.8292 269° West 108 124 900 -787 Descending Cleveland Center
Thu 04:59:00 PM 41.4000 -81.8500 252° West  Level FlightAware Approximate
Thu 05:06:00 PM 41.4094 -81.8547 252° West  Level Estimated

Login

Don't have an account? Register now (free) for customized features, flight alerts, and more!